createdAt,value
2022-12-08T00:01:34.733Z,11.18
2022-12-08T00:04:04.094Z,11.27
2022-12-08T00:06:51.893Z,10.38
2022-12-08T00:09:24.121Z,10.27
2022-12-08T00:11:57.432Z,9.98
2022-12-08T00:14:29.508Z,10.52
2022-12-08T00:19:26.024Z,10.82
2022-12-08T00:21:54.506Z,10.93
2022-12-08T00:24:24.141Z,11.45
2022-12-08T00:26:52.626Z,12.20
2022-12-08T00:29:21.067Z,11.77
2022-12-08T00:31:50.496Z,11.75
2022-12-08T00:34:18.699Z,13.48
2022-12-08T00:36:46.692Z,12.27
2022-12-08T00:39:15.429Z,13.57
2022-12-08T00:42:01.805Z,12.50
2022-12-08T00:44:29.943Z,14.05
2022-12-08T00:46:59.269Z,12.60
2022-12-08T00:49:27.315Z,13.60
2022-12-08T00:51:55.393Z,12.40
2022-12-08T00:54:23.999Z,13.68
2022-12-08T00:56:52.460Z,13.18
2022-12-08T00:59:20.604Z,13.65
2022-12-08T01:01:48.793Z,14.70
2022-12-08T01:04:19.305Z,15.77
2022-12-08T01:06:47.792Z,16.25
2022-12-08T01:09:18.126Z,14.32
2022-12-08T01:11:46.991Z,15.85
2022-12-08T01:14:15.558Z,15.02
2022-12-08T01:16:44.385Z,14.80
2022-12-08T01:19:13.680Z,16.15
2022-12-08T01:21:44.516Z,15.25
2022-12-08T01:24:13.183Z,16.48
2022-12-08T01:26:41.364Z,15.07
2022-12-08T01:29:10.868Z,17.38
2022-12-08T01:31:39.177Z,16.38
2022-12-08T01:34:08.056Z,16.73
2022-12-08T01:36:38.319Z,17.42
2022-12-08T01:39:11.178Z,16.15
2022-12-08T01:41:39.457Z,17.25
2022-12-08T01:44:41.203Z,17.38
2022-12-08T01:47:09.480Z,17.27
2022-12-08T01:49:37.885Z,17.98
2022-12-08T01:52:12.393Z,17.55
2022-12-08T01:54:44.402Z,15.63
2022-12-08T01:57:14.176Z,16.60
2022-12-08T01:59:45.645Z,15.75
2022-12-08T02:02:13.721Z,12.07
2022-12-08T02:04:41.775Z,15.27
2022-12-08T02:07:11.081Z,17.08
2022-12-08T02:09:41.202Z,14.95
2022-12-08T02:12:09.940Z,14.65
2022-12-08T02:14:39.091Z,15.23
2022-12-08T02:17:17.075Z,15.38
2022-12-08T02:20:17.250Z,15.55
2022-12-08T02:22:50.209Z,16.17
2022-12-08T02:25:26.454Z,13.52
2022-12-08T02:28:04.704Z,11.90
2022-12-08T02:30:39.521Z,12.73
2022-12-08T02:33:38.529Z,12.35
2022-12-08T02:36:12.222Z,10.70
2022-12-08T02:38:48.176Z,10.93
2022-12-08T02:41:21.840Z,11.38
2022-12-08T02:43:53.417Z,11.18
2022-12-08T02:46:23.837Z,10.77
2022-12-08T02:48:53.886Z,10.38
2022-12-08T02:51:22.002Z,10.95
2022-12-08T02:53:50.133Z,10.20
2022-12-08T02:56:36.136Z,9.55
2022-12-08T02:59:16.664Z,11.00
2022-12-08T03:01:58.628Z,9.70
2022-12-08T03:04:36.431Z,11.77
2022-12-08T03:07:08.190Z,10.00
2022-12-08T03:09:39.741Z,11.18
2022-12-08T03:12:13.895Z,10.85
2022-12-08T03:14:46.804Z,12.63
2022-12-08T03:17:16.516Z,13.55
2022-12-08T03:19:48.110Z,11.73
2022-12-08T03:22:17.530Z,14.05
2022-12-08T03:24:46.398Z,15.52
2022-12-08T03:27:16.695Z,14.80
2022-12-08T03:29:44.834Z,16.02
2022-12-08T03:32:16.096Z,16.80
2022-12-08T03:34:47.217Z,17.80
2022-12-08T03:37:15.878Z,15.80
2022-12-08T03:39:44.154Z,15.38
2022-12-08T03:42:12.136Z,15.95
2022-12-08T03:44:40.143Z,15.60
2022-12-08T03:47:08.146Z,16.33
2022-12-08T03:49:37.152Z,18.00
2022-12-08T03:52:06.459Z,17.92
2022-12-08T03:54:34.428Z,18.55
2022-12-08T03:57:02.454Z,19.75
2022-12-08T03:59:30.410Z,18.50
2022-12-08T04:01:58.411Z,20.75
2022-12-08T04:04:26.423Z,22.33
2022-12-08T04:06:54.451Z,21.52
2022-12-08T04:09:23.986Z,23.55
2022-12-08T04:11:52.003Z,25.05
2022-12-08T04:14:20.138Z,23.08
2022-12-08T04:16:48.302Z,25.08
2022-12-08T04:19:16.383Z,21.33
2022-12-08T04:21:44.387Z,24.70
2022-12-08T04:24:12.519Z,24.73
2022-12-08T04:26:42.134Z,25.83
2022-12-08T04:29:10.137Z,23.73
2022-12-08T04:31:38.178Z,27.20
2022-12-08T04:34:06.279Z,25.67
2022-12-08T04:36:34.351Z,27.63
2022-12-08T04:39:02.501Z,24.90
2022-12-08T04:41:30.533Z,25.38
2022-12-08T04:43:59.874Z,25.30
2022-12-08T04:46:28.126Z,25.52
2022-12-08T04:48:56.215Z,24.52
2022-12-08T04:51:24.454Z,27.02
2022-12-08T04:53:52.466Z,27.08
2022-12-08T04:56:20.764Z,26.23
2022-12-08T04:58:48.715Z,26.42
2022-12-08T05:01:18.114Z,26.15
2022-12-08T05:03:46.346Z,27.40
2022-12-08T05:06:15.228Z,27.45
2022-12-08T05:08:44.105Z,26.60
2022-12-08T05:11:13.683Z,26.92
2022-12-08T05:13:41.759Z,26.67
2022-12-08T05:16:12.293Z,26.77
2022-12-08T05:18:42.948Z,26.48
2022-12-08T05:21:11.214Z,26.92
2022-12-08T05:23:39.585Z,25.60
2022-12-08T05:26:07.840Z,26.60
2022-12-08T05:28:43.889Z,26.80
2022-12-08T05:31:13.117Z,26.42
2022-12-08T05:33:43.006Z,26.42
2022-12-08T05:36:13.135Z,25.23
2022-12-08T05:38:41.438Z,25.45
2022-12-08T05:41:11.061Z,26.20
2022-12-08T05:43:39.039Z,26.13
2022-12-08T05:46:08.778Z,24.40
2022-12-08T05:48:37.281Z,23.98
2022-12-08T05:51:09.141Z,26.02
2022-12-08T05:53:37.205Z,25.08
2022-12-08T05:56:05.824Z,24.90
2022-12-08T05:58:33.876Z,24.83
2022-12-08T06:01:01.845Z,23.30
2022-12-08T06:03:30.445Z,25.42
2022-12-08T06:05:58.814Z,25.70
2022-12-08T06:08:28.190Z,25.85
2022-12-08T06:10:57.221Z,22.92
2022-12-08T06:13:25.296Z,23.65
2022-12-08T06:15:53.449Z,23.30
2022-12-08T06:18:21.497Z,23.20
2022-12-08T06:20:49.709Z,21.98
2022-12-08T06:23:17.776Z,22.70
2022-12-08T06:25:47.404Z,23.60
2022-12-08T06:28:15.450Z,23.63
2022-12-08T06:30:43.510Z,23.42
2022-12-08T06:33:11.490Z,22.15
2022-12-08T06:35:39.466Z,24.02
2022-12-08T06:38:07.486Z,21.00
2022-12-08T06:40:35.601Z,22.13
2022-12-08T06:43:05.011Z,22.25
2022-12-08T06:45:33.064Z,22.95
2022-12-08T06:48:02.671Z,22.35
2022-12-08T06:50:30.646Z,24.75
2022-12-08T06:53:05.065Z,24.58
2022-12-08T06:58:23.534Z,25.77
2022-12-08T07:00:51.578Z,23.95
2022-12-08T07:03:19.832Z,26.38
2022-12-08T07:05:47.986Z,24.02
2022-12-08T07:08:16.499Z,22.52
2022-12-08T07:10:44.510Z,21.88
2022-12-08T07:13:12.540Z,23.75
2022-12-08T07:15:42.858Z,23.33
2022-12-08T07:18:10.879Z,25.33
2022-12-08T07:20:39.393Z,23.08
2022-12-08T07:23:07.510Z,22.27
2022-12-08T07:25:35.708Z,21.20
2022-12-08T07:28:09.531Z,21.92
2022-12-08T07:30:37.934Z,23.52
2022-12-08T07:33:07.441Z,22.00
2022-12-08T07:35:35.597Z,22.40
2022-12-08T07:38:03.646Z,21.05
2022-12-08T07:40:31.641Z,21.65
2022-12-08T07:43:00.202Z,21.85
2022-12-08T07:45:31.702Z,21.10
2022-12-08T07:48:00.208Z,19.63
2022-12-08T07:50:29.534Z,20.50
2022-12-08T07:52:57.529Z,20.83
2022-12-08T07:55:25.691Z,22.23
2022-12-08T07:57:57.286Z,20.08
2022-12-08T08:00:25.663Z,20.30
2022-12-08T08:02:53.850Z,20.83
2022-12-08T08:05:21.884Z,18.45
2022-12-08T08:07:51.328Z,19.45
2022-12-08T08:10:19.367Z,20.73
2022-12-08T08:12:48.426Z,20.13
2022-12-08T08:15:17.447Z,20.33
2022-12-08T08:17:45.530Z,19.48
2022-12-08T08:20:14.498Z,17.98
2022-12-08T08:22:42.587Z,19.27
2022-12-08T08:25:12.272Z,19.40
2022-12-08T08:27:40.478Z,18.52
2022-12-08T08:30:14.009Z,19.63
2022-12-08T08:32:45.227Z,17.23
2022-12-08T08:35:13.411Z,17.92
2022-12-08T08:37:48.322Z,18.05
2022-12-08T08:40:18.669Z,16.50
2022-12-08T08:42:46.641Z,17.27
2022-12-08T08:45:15.663Z,18.13
2022-12-08T08:47:43.896Z,16.15
2022-12-08T08:50:12.042Z,18.70
2022-12-08T08:52:40.044Z,16.80
2022-12-08T08:55:09.419Z,17.52
2022-12-08T08:57:39.012Z,16.50
2022-12-08T09:00:10.197Z,18.80
2022-12-08T09:02:38.441Z,16.55
2022-12-08T09:05:07.699Z,16.60
2022-12-08T09:07:35.809Z,15.13
2022-12-08T09:10:04.513Z,15.38
2022-12-08T09:12:32.803Z,15.70
2022-12-08T09:15:02.128Z,15.13
2022-12-08T09:17:30.147Z,16.08
2022-12-08T09:19:58.252Z,16.80
2022-12-08T09:22:26.257Z,15.10
2022-12-08T09:24:54.319Z,15.50
2022-12-08T09:27:22.538Z,15.82
2022-12-08T09:29:50.602Z,14.90
2022-12-08T09:32:20.110Z,15.02
2022-12-08T09:34:52.116Z,14.73
2022-12-08T09:37:20.431Z,12.82
2022-12-08T09:39:48.496Z,15.13
2022-12-08T09:42:32.470Z,13.27
2022-12-08T09:45:05.579Z,13.30
2022-12-08T09:47:38.242Z,13.77
2022-12-08T09:50:12.401Z,12.85
2022-12-08T09:52:43.572Z,14.07
2022-12-08T09:55:18.497Z,13.68
2022-12-08T09:57:53.085Z,11.18
2022-12-08T10:00:24.863Z,13.18
2022-12-08T10:02:54.212Z,12.30
2022-12-08T10:05:23.907Z,11.68
2022-12-08T10:08:02.446Z,11.60
2022-12-08T10:10:36.828Z,12.02
2022-12-08T10:13:09.657Z,11.75
2022-12-08T10:15:43.498Z,12.00
2022-12-08T10:18:17.460Z,11.18
2022-12-08T10:20:47.380Z,12.45
2022-12-08T10:23:24.093Z,11.57
2022-12-08T10:25:57.875Z,11.52
2022-12-08T10:28:26.136Z,10.95
2022-12-08T10:30:54.385Z,10.48
2022-12-08T10:33:25.478Z,10.60
2022-12-08T10:35:55.310Z,11.98
2022-12-08T10:38:24.881Z,12.05
2022-12-08T10:40:54.736Z,11.77
2022-12-08T10:43:25.452Z,11.77
2022-12-08T10:45:54.299Z,11.98
2022-12-08T10:48:25.688Z,11.77
2022-12-08T10:50:55.966Z,12.53
2022-12-08T10:53:25.535Z,13.90
2022-12-08T10:55:54.983Z,12.95
2022-12-08T10:58:33.827Z,13.45
2022-12-08T11:01:05.347Z,14.35
2022-12-08T11:03:37.211Z,14.13
2022-12-08T11:06:14.390Z,14.20
2022-12-08T11:08:51.956Z,14.25
2022-12-08T11:11:25.857Z,13.85
2022-12-08T11:13:57.420Z,15.88
2022-12-08T11:16:25.520Z,15.05
2022-12-08T11:18:59.445Z,15.52
2022-12-08T11:21:37.630Z,16.17
2022-12-08T11:24:21.815Z,15.85
2022-12-08T11:26:53.282Z,15.10
2022-12-08T11:29:21.578Z,15.93
2022-12-08T11:31:53.208Z,18.13
2022-12-08T11:34:37.542Z,16.15
2022-12-08T11:37:06.722Z,16.13
2022-12-08T11:39:37.524Z,16.73
2022-12-08T11:42:08.079Z,15.80
2022-12-08T11:44:40.068Z,16.05
2022-12-08T11:47:13.385Z,15.15
2022-12-08T11:49:43.940Z,16.95
2022-12-08T11:52:20.473Z,15.88
2022-12-08T11:54:51.901Z,16.40
2022-12-08T11:57:20.899Z,14.88
2022-12-08T11:59:50.975Z,16.38
2022-12-08T12:02:22.857Z,16.67
2022-12-08T12:04:56.300Z,17.60
2022-12-08T12:07:45.201Z,18.25
2022-12-08T12:10:30.607Z,17.50
2022-12-08T12:13:06.643Z,15.48
2022-12-08T12:15:57.563Z,18.25
2022-12-08T12:18:28.900Z,18.33
2022-12-08T12:20:59.956Z,16.77
2022-12-08T12:23:33.667Z,17.30
2022-12-08T12:26:04.158Z,16.92
2022-12-08T12:28:38.512Z,17.15
2022-12-08T12:31:09.158Z,17.08
2022-12-08T12:33:37.431Z,18.27
2022-12-08T12:36:08.893Z,17.80
2022-12-08T12:38:55.973Z,16.83
2022-12-08T12:41:25.867Z,18.40
2022-12-08T12:44:25.491Z,18.98
2022-12-08T12:46:58.946Z,17.13
2022-12-08T12:50:16.196Z,18.42
2022-12-08T12:52:49.321Z,18.15
2022-12-08T12:55:22.475Z,18.13
2022-12-08T12:57:52.712Z,19.13
2022-12-08T13:00:22.023Z,17.50
2022-12-08T13:02:51.082Z,20.33
2022-12-08T13:05:21.164Z,18.63
2022-12-08T13:07:54.932Z,18.83
2022-12-08T13:10:24.712Z,18.90
2022-12-08T13:13:17.402Z,20.17
2022-12-08T13:15:50.762Z,25.02
2022-12-08T13:18:20.680Z,25.60
2022-12-08T13:20:52.620Z,20.92
2022-12-08T13:23:46.252Z,20.48
2022-12-08T13:26:17.060Z,19.40
2022-12-08T13:29:19.293Z,19.52
2022-12-08T13:31:51.352Z,20.13
2022-12-08T13:34:27.025Z,18.42
2022-12-08T13:37:03.383Z,19.63
2022-12-08T13:39:36.473Z,19.05
2022-12-08T13:42:08.761Z,19.60
2022-12-08T13:47:34.248Z,22.10
2022-12-08T13:58:39.152Z,13.90
2022-12-08T14:01:09.566Z,13.88
2022-12-08T14:04:11.655Z,15.45
2022-12-08T14:06:37.595Z,15.27
2022-12-08T14:09:11.002Z,16.77
2022-12-08T14:11:43.938Z,16.20
2022-12-08T14:16:51.593Z,16.42
2022-12-08T14:19:21.992Z,14.45
2022-12-08T14:21:57.179Z,15.32
2022-12-08T14:24:26.194Z,14.45
2022-12-08T14:26:58.700Z,16.02
2022-12-08T14:29:42.977Z,14.90
2022-12-08T14:32:21.805Z,12.95
2022-12-08T14:34:54.904Z,12.68
2022-12-08T14:37:24.308Z,12.95
2022-12-08T14:39:52.709Z,12.00
2022-12-08T14:42:26.648Z,12.10
2022-12-08T14:45:00.922Z,11.93
2022-12-08T14:47:34.328Z,12.38
2022-12-08T14:50:03.942Z,12.70
2022-12-08T14:52:32.271Z,12.35
2022-12-08T14:55:00.495Z,12.27
2022-12-08T14:57:34.884Z,13.00
2022-12-08T15:00:10.915Z,11.18
2022-12-08T15:02:46.588Z,12.65
2022-12-08T15:05:16.966Z,11.82
2022-12-08T15:07:49.133Z,11.32
2022-12-08T15:13:02.910Z,12.98
2022-12-08T15:15:32.004Z,12.77
2022-12-08T15:18:03.781Z,12.70
2022-12-08T15:20:39.861Z,12.85
2022-12-08T15:23:20.392Z,11.98
2022-12-08T15:25:48.650Z,12.57
2022-12-08T15:28:22.000Z,14.52
2022-12-08T15:30:51.130Z,13.30
2022-12-08T15:33:20.707Z,12.93
2022-12-08T15:35:49.673Z,14.65
2022-12-08T15:38:21.107Z,14.32
2022-12-08T15:40:49.343Z,15.48
2022-12-08T15:43:18.860Z,14.95
2022-12-08T15:45:57.859Z,14.70
2022-12-08T15:48:28.833Z,14.95
2022-12-08T15:50:57.645Z,13.95
2022-12-08T15:53:25.766Z,14.18
2022-12-08T15:56:25.675Z,14.85
2022-12-08T15:58:58.755Z,14.90
2022-12-08T16:01:27.455Z,15.70
2022-12-08T16:09:35.994Z,14.38
2022-12-08T16:12:22.098Z,15.32
2022-12-08T16:17:40.527Z,16.92
2022-12-08T16:20:14.675Z,17.60
2022-12-08T16:23:13.073Z,17.52
2022-12-08T16:25:52.786Z,18.55
2022-12-08T16:28:52.315Z,17.60
2022-12-08T16:31:15.069Z,17.02
2022-12-08T16:33:44.653Z,18.23
2022-12-08T16:36:12.687Z,18.15
2022-12-08T16:38:40.780Z,18.48
2022-12-08T16:41:31.845Z,17.63
2022-12-08T16:44:02.393Z,20.48
2022-12-08T16:46:32.554Z,19.92
2022-12-08T16:49:00.668Z,19.08
2022-12-08T16:51:30.771Z,20.17
2022-12-08T16:53:58.818Z,18.48
2022-12-08T16:56:32.684Z,19.50
2022-12-08T16:59:01.612Z,19.52
2022-12-08T17:01:29.812Z,20.42
2022-12-08T17:04:31.048Z,19.35
2022-12-08T17:06:47.498Z,20.98
2022-12-08T17:09:18.720Z,21.00
2022-12-08T17:11:49.558Z,20.40
2022-12-08T17:14:17.564Z,20.27
2022-12-08T17:16:46.177Z,20.90
2022-12-08T17:19:15.993Z,20.98
2022-12-08T17:21:45.712Z,21.17
2022-12-08T17:24:17.258Z,22.63
2022-12-08T17:26:48.420Z,21.77
2022-12-08T17:29:18.622Z,23.42
2022-12-08T17:31:47.417Z,23.73
2022-12-08T17:34:16.821Z,24.00
2022-12-08T17:36:44.784Z,24.10
2022-12-08T17:39:18.267Z,22.33
2022-12-08T17:41:47.647Z,22.27
2022-12-08T17:44:19.875Z,23.27
2022-12-08T17:46:52.630Z,22.98
2022-12-08T17:49:25.454Z,24.60
2022-12-08T17:54:22.669Z,25.02
2022-12-08T17:56:50.785Z,25.55
2022-12-08T17:59:19.211Z,25.60
2022-12-08T18:01:47.412Z,24.77
2022-12-08T18:04:15.757Z,25.83
2022-12-08T18:06:45.149Z,25.50
2022-12-08T18:09:14.075Z,24.90
2022-12-08T18:11:42.804Z,25.65
2022-12-08T18:14:12.336Z,25.52
2022-12-08T18:16:42.507Z,25.35
2022-12-08T18:19:11.593Z,25.65
2022-12-08T18:21:40.484Z,27.65
2022-12-08T18:24:11.866Z,27.08
2022-12-08T18:26:40.860Z,26.10
2022-12-08T18:29:08.866Z,27.92
2022-12-08T18:31:37.209Z,27.35
2022-12-08T18:34:05.252Z,25.60
2022-12-08T18:36:33.924Z,25.20
2022-12-08T18:39:10.491Z,24.90
2022-12-08T18:41:40.703Z,25.65
2022-12-08T18:44:08.929Z,29.08
2022-12-08T18:46:37.160Z,28.25
2022-12-08T18:49:05.315Z,27.67
2022-12-08T18:51:33.378Z,28.52
2022-12-08T18:54:01.346Z,26.92
2022-12-08T18:56:30.563Z,27.60
2022-12-08T18:59:03.638Z,27.05
2022-12-08T19:01:51.013Z,27.80
2022-12-08T19:04:38.521Z,29.10
2022-12-08T19:07:07.271Z,27.63
2022-12-08T19:09:35.536Z,29.67
2022-12-08T19:12:03.643Z,28.10
2022-12-08T19:14:33.858Z,28.08
2022-12-08T19:17:02.301Z,29.23
2022-12-08T19:19:30.603Z,29.42
2022-12-08T19:21:58.668Z,30.05
2022-12-08T19:24:26.750Z,27.58
2022-12-08T19:26:54.880Z,27.63
2022-12-08T19:29:22.885Z,27.92
2022-12-08T19:31:52.503Z,27.85
2022-12-08T19:34:20.705Z,28.40
2022-12-08T19:36:51.949Z,25.92
2022-12-08T19:39:38.824Z,26.37
2022-12-08T19:42:31.986Z,27.10
2022-12-08T19:45:02.951Z,26.00
2022-12-08T19:47:32.468Z,25.02
2022-12-08T19:50:14.727Z,24.92
2022-12-08T19:52:43.011Z,29.60
2022-12-08T19:55:11.669Z,28.05
2022-12-08T19:57:39.661Z,32.30
2022-12-08T20:00:09.875Z,36.22
2022-12-08T20:02:39.889Z,33.92
2022-12-08T20:05:09.582Z,34.05
2022-12-08T20:07:37.901Z,32.20
2022-12-08T20:10:07.688Z,27.55
2022-12-08T20:12:36.396Z,28.30
2022-12-08T20:15:04.740Z,31.75
2022-12-08T20:17:32.700Z,32.55
2022-12-08T20:20:06.859Z,29.77
2022-12-08T20:22:35.670Z,26.88
2022-12-08T20:25:03.936Z,25.77
2022-12-08T20:27:31.957Z,25.95
2022-12-08T20:30:00.015Z,27.35
2022-12-08T20:32:28.149Z,27.42
2022-12-08T20:34:56.350Z,25.45
2022-12-08T20:37:25.641Z,26.42
2022-12-08T20:39:56.040Z,27.63
2022-12-08T20:42:24.202Z,29.33
2022-12-08T20:44:52.257Z,27.13
2022-12-08T20:47:20.249Z,25.98
2022-12-08T20:49:48.589Z,25.63
2022-12-08T20:52:16.852Z,23.05
2022-12-08T20:54:46.431Z,21.15
2022-12-08T20:57:14.492Z,22.23
2022-12-08T20:59:42.692Z,22.20
2022-12-08T21:02:10.837Z,21.55
2022-12-08T21:04:39.486Z,21.80
2022-12-08T21:07:08.917Z,20.60
2022-12-08T21:09:37.381Z,22.10
2022-12-08T21:12:07.609Z,22.65
2022-12-08T21:14:35.972Z,23.70
2022-12-08T21:17:04.560Z,21.90
2022-12-08T21:19:32.972Z,22.85
2022-12-08T21:22:01.253Z,21.08
2022-12-08T21:24:33.995Z,22.30
2022-12-08T21:27:02.928Z,21.08
2022-12-08T21:29:32.791Z,20.77
2022-12-08T21:32:01.261Z,18.75
2022-12-08T21:34:31.763Z,20.33
2022-12-08T21:37:00.056Z,20.83
2022-12-08T21:39:28.837Z,23.10
2022-12-08T21:42:17.476Z,21.00
2022-12-08T21:44:48.287Z,21.77
2022-12-08T21:47:16.520Z,22.90
2022-12-08T21:49:45.895Z,22.10
2022-12-08T21:52:13.977Z,23.15
2022-12-08T21:54:42.193Z,23.13
2022-12-08T21:57:10.344Z,21.77
2022-12-08T21:59:38.434Z,24.05
2022-12-08T22:02:10.405Z,22.73
2022-12-08T22:07:06.947Z,22.70
2022-12-08T22:09:35.394Z,22.92
2022-12-08T22:12:03.652Z,24.38
2022-12-08T22:14:31.709Z,24.70
2022-12-08T22:16:59.996Z,24.75
2022-12-08T22:19:31.279Z,25.98
2022-12-08T22:21:59.333Z,27.93
2022-12-08T22:24:27.526Z,28.20
2022-12-08T22:26:55.630Z,29.55
2022-12-08T22:29:23.760Z,28.90
2022-12-08T22:31:51.860Z,31.90
2022-12-08T22:34:20.103Z,31.27
2022-12-08T22:36:49.815Z,32.30
2022-12-08T22:39:17.907Z,35.65
2022-12-08T22:41:46.143Z,34.53
2022-12-08T22:44:15.338Z,31.73
2022-12-08T22:46:43.484Z,30.65
2022-12-08T22:49:11.589Z,32.47
2022-12-08T22:51:40.000Z,34.88
2022-12-08T22:54:10.805Z,35.58
2022-12-08T22:56:38.923Z,34.42
2022-12-08T22:59:07.085Z,36.20
2022-12-08T23:01:35.557Z,36.50
2022-12-08T23:04:03.871Z,36.45
2022-12-08T23:06:32.878Z,35.50
2022-12-08T23:09:01.205Z,37.50
2022-12-08T23:11:31.844Z,35.95
2022-12-08T23:14:01.037Z,36.33
2022-12-08T23:16:29.703Z,36.42
2022-12-08T23:18:57.976Z,39.20
2022-12-08T23:21:25.971Z,40.22
2022-12-08T23:23:54.285Z,39.22
2022-12-08T23:26:24.750Z,41.45
2022-12-08T23:28:54.662Z,40.00
2022-12-08T23:31:23.951Z,41.00
2022-12-08T23:33:52.964Z,42.25
2022-12-08T23:36:22.036Z,42.63
2022-12-08T23:38:50.069Z,40.40
2022-12-08T23:41:18.405Z,38.15
2022-12-08T23:43:47.944Z,37.40
2022-12-08T23:46:19.009Z,41.70
2022-12-08T23:48:47.415Z,40.00
2022-12-08T23:51:15.531Z,38.45
2022-12-08T23:53:44.057Z,38.13
2022-12-08T23:56:13.612Z,37.58
2022-12-08T23:58:42.707Z,40.75
